createdAt,value
2018-12-29T00:00:07.013Z,62.73
2018-12-29T00:02:37.642Z,63.70
2018-12-29T00:05:07.804Z,58.40
2018-12-29T00:07:38.003Z,69.35
2018-12-29T00:10:08.325Z,55.48
2018-12-29T00:12:38.987Z,64.35
2018-12-29T00:15:09.375Z,59.65
2018-12-29T00:17:39.688Z,57.45
2018-12-29T00:20:09.837Z,58.83
2018-12-29T00:22:40.636Z,55.25
2018-12-29T00:25:11.695Z,54.85
2018-12-29T00:27:41.645Z,60.48
2018-12-29T00:30:12.413Z,47.60
2018-12-29T00:32:42.398Z,55.70
2018-12-29T00:35:12.503Z,58.85
2018-12-29T00:37:42.506Z,58.42
2018-12-29T00:40:12.666Z,53.87
2018-12-29T00:42:42.668Z,57.25
2018-12-29T00:45:13.033Z,51.28
2018-12-29T00:47:42.965Z,47.25
2018-12-29T00:50:13.276Z,52.95
2018-12-29T00:52:43.595Z,49.42
2018-12-29T00:55:13.496Z,51.92
2018-12-29T00:57:43.601Z,53.90
2018-12-29T01:00:13.556Z,60.00
2018-12-29T01:02:43.574Z,54.33
2018-12-29T01:05:13.663Z,64.77
2018-12-29T01:07:43.740Z,57.75
2018-12-29T01:10:13.809Z,56.70
2018-12-29T01:12:43.639Z,60.40
2018-12-29T01:15:15.260Z,58.35
2018-12-29T01:17:45.571Z,57.03
2018-12-29T01:20:15.504Z,60.50
2018-12-29T01:22:45.502Z,64.62
2018-12-29T01:25:15.447Z,58.78
2018-12-29T01:27:45.374Z,54.70
2018-12-29T01:30:15.956Z,54.88
2018-12-29T01:32:46.241Z,54.10
2018-12-29T01:35:16.223Z,49.63
2018-12-29T01:37:46.047Z,60.08
2018-12-29T01:40:15.870Z,61.70
2018-12-29T01:42:45.829Z,51.90
2018-12-29T01:45:17.568Z,57.10
2018-12-29T01:47:47.592Z,47.85
2018-12-29T01:50:17.427Z,47.58
2018-12-29T01:52:47.360Z,58.38
2018-12-29T01:55:17.272Z,60.60
2018-12-29T01:57:47.098Z,61.20
2018-12-29T02:00:16.951Z,54.93
2018-12-29T02:02:46.962Z,53.87
2018-12-29T02:05:17.000Z,56.60
2018-12-29T02:07:46.861Z,60.15
2018-12-29T02:10:16.710Z,61.48
2018-12-29T02:12:46.664Z,47.78
2018-12-29T02:15:16.513Z,57.55
2018-12-29T02:17:46.363Z,52.93
2018-12-29T02:20:16.146Z,57.00
2018-12-29T02:22:45.957Z,56.65
2018-12-29T02:25:15.801Z,54.93
2018-12-29T02:27:50.445Z,57.33
2018-12-29T02:30:21.872Z,57.55
2018-12-29T02:32:51.709Z,54.70
2018-12-29T02:35:27.294Z,58.55
2018-12-29T02:37:57.472Z,63.52
2018-12-29T02:40:27.245Z,54.45
2018-12-29T02:42:57.008Z,51.70
2018-12-29T02:45:33.086Z,51.95
2018-12-29T02:48:00.497Z,50.33
2018-12-29T02:50:30.448Z,63.05
2018-12-29T02:53:01.129Z,57.80
2018-12-29T02:55:31.026Z,53.23
2018-12-29T02:58:00.850Z,64.77
2018-12-29T03:00:30.631Z,54.83
2018-12-29T03:03:00.473Z,50.88
2018-12-29T03:05:30.385Z,47.25
2018-12-29T03:08:00.246Z,56.28
2018-12-29T03:10:30.048Z,51.70
2018-12-29T03:13:00.133Z,57.88
2018-12-29T03:15:29.948Z,64.03
2018-12-29T03:18:09.115Z,55.03
2018-12-29T03:20:42.645Z,55.10
2018-12-29T03:23:14.576Z,54.67
2018-12-29T03:25:44.313Z,54.45
2018-12-29T03:28:16.723Z,50.73
2018-12-29T03:30:46.468Z,47.23
2018-12-29T03:33:16.261Z,59.45
2018-12-29T03:35:56.057Z,44.98
2018-12-29T03:38:26.136Z,57.80
2018-12-29T03:40:55.902Z,49.03
2018-12-29T03:43:25.741Z,55.85
2018-12-29T03:45:57.120Z,44.85
2018-12-29T03:48:26.871Z,54.23
2018-12-29T03:50:56.681Z,47.50
2018-12-29T03:53:26.471Z,43.85
2018-12-29T03:55:56.280Z,45.23
2018-12-29T03:58:26.090Z,53.83
2018-12-29T04:00:55.848Z,49.65
2018-12-29T04:03:25.747Z,48.70
2018-12-29T04:05:55.598Z,57.03
2018-12-29T04:08:25.416Z,48.83
2018-12-29T04:10:57.707Z,44.40
2018-12-29T04:13:27.608Z,49.23
2018-12-29T04:15:58.230Z,47.73
2018-12-29T04:18:28.349Z,51.63
2018-12-29T04:20:58.194Z,55.10
2018-12-29T04:23:28.004Z,49.08
2018-12-29T04:25:57.979Z,54.30
2018-12-29T04:28:30.498Z,56.40
2018-12-29T04:31:00.412Z,59.60
2018-12-29T04:33:30.155Z,55.75
2018-12-29T04:35:59.988Z,52.73
2018-12-29T04:38:29.738Z,56.50
2018-12-29T04:40:59.663Z,52.27
2018-12-29T04:43:29.590Z,55.85
2018-12-29T04:46:05.212Z,57.95
2018-12-29T04:48:31.384Z,61.10
2018-12-29T04:51:01.180Z,61.92
2018-12-29T04:53:31.057Z,57.83
2018-12-29T04:56:00.889Z,51.40
2018-12-29T04:58:30.718Z,55.35
2018-12-29T05:01:00.599Z,48.78
2018-12-29T05:03:30.475Z,52.65
2018-12-29T05:06:00.388Z,55.55
2018-12-29T05:08:30.524Z,58.25
2018-12-29T05:11:00.416Z,49.53
2018-12-29T05:13:30.211Z,52.03
2018-12-29T05:16:00.215Z,52.25
2018-12-29T05:18:30.022Z,55.12
2018-12-29T05:20:59.867Z,49.40
2018-12-29T05:23:29.648Z,56.25
2018-12-29T05:25:59.432Z,47.48
2018-12-29T05:28:29.347Z,60.52
2018-12-29T05:30:59.171Z,44.45
2018-12-29T05:33:29.147Z,52.65
2018-12-29T05:35:58.952Z,54.10
2018-12-29T05:38:28.772Z,51.77
2018-12-29T05:40:58.595Z,53.30
2018-12-29T05:43:28.388Z,50.05
2018-12-29T05:45:58.166Z,46.73
2018-12-29T05:48:28.107Z,44.15
2018-12-29T05:50:57.927Z,44.90
2018-12-29T05:53:27.722Z,52.05
2018-12-29T05:55:57.538Z,52.45
2018-12-29T05:58:27.335Z,43.45
2018-12-29T06:00:57.181Z,41.80
2018-12-29T06:03:27.092Z,50.67
2018-12-29T06:05:57.111Z,57.03
2018-12-29T06:08:27.025Z,49.10
2018-12-29T06:10:56.804Z,50.70
2018-12-29T06:13:26.624Z,49.05
2018-12-29T06:15:56.406Z,50.67
2018-12-29T06:18:26.185Z,56.70
2018-12-29T06:20:56.056Z,49.13
2018-12-29T06:23:25.877Z,43.85
2018-12-29T06:25:55.655Z,41.13
2018-12-29T06:28:25.414Z,45.92
2018-12-29T06:30:55.215Z,46.00
2018-12-29T06:33:24.951Z,43.80
2018-12-29T06:35:54.745Z,38.92
2018-12-29T06:38:24.587Z,42.98
2018-12-29T06:40:54.603Z,54.53
2018-12-29T06:43:24.387Z,51.08
2018-12-29T06:45:54.200Z,45.98
2018-12-29T06:48:23.948Z,44.38
2018-12-29T06:50:53.779Z,50.95
2018-12-29T06:53:23.870Z,39.53
2018-12-29T06:55:53.672Z,48.02
2018-12-29T06:58:24.600Z,42.93
2018-12-29T07:00:54.437Z,46.65
2018-12-29T07:03:24.222Z,40.75
2018-12-29T07:05:54.086Z,52.23
2018-12-29T07:08:23.847Z,39.10
2018-12-29T07:10:53.660Z,37.58
2018-12-29T07:13:23.462Z,42.45
2018-12-29T07:15:53.429Z,38.95
2018-12-29T07:18:23.226Z,39.10
2018-12-29T07:20:53.034Z,41.13
2018-12-29T07:23:22.881Z,38.70
2018-12-29T07:25:52.767Z,44.15
2018-12-29T07:28:22.656Z,36.10
2018-12-29T07:30:52.538Z,40.83
2018-12-29T07:33:22.332Z,45.33
2018-12-29T07:38:25.615Z,41.88
2018-12-29T07:41:05.655Z,51.30
2018-12-29T07:43:43.739Z,37.80
2018-12-29T07:46:35.974Z,47.80
2018-12-29T07:49:08.061Z,44.03
2018-12-29T07:51:37.988Z,47.03
2018-12-29T07:54:07.948Z,38.65
2018-12-29T07:56:37.701Z,45.43
2018-12-29T07:59:07.702Z,47.98
2018-12-29T08:01:37.521Z,46.92
2018-12-29T08:04:07.399Z,39.25
2018-12-29T08:06:37.246Z,45.98
2018-12-29T08:09:07.636Z,44.67
2018-12-29T08:11:37.602Z,48.38
2018-12-29T08:14:07.488Z,46.80
2018-12-29T08:16:37.301Z,42.65
2018-12-29T08:19:07.169Z,41.40
2018-12-29T08:21:38.243Z,46.28
2018-12-29T08:24:14.748Z,49.58
2018-12-29T08:26:49.723Z,50.05
2018-12-29T08:29:19.873Z,48.68
2018-12-29T08:31:49.922Z,43.13
2018-12-29T08:34:19.800Z,50.52
2018-12-29T08:36:52.926Z,40.73
2018-12-29T08:39:22.892Z,40.10
2018-12-29T08:41:52.766Z,51.10
2018-12-29T08:44:22.750Z,47.75
2018-12-29T08:46:52.744Z,49.38
2018-12-29T08:49:22.675Z,43.00
2018-12-29T08:51:52.546Z,44.60
2018-12-29T08:54:23.834Z,40.92
2018-12-29T08:56:53.763Z,45.05
2018-12-29T08:59:23.677Z,45.65
2018-12-29T09:01:53.673Z,48.90
2018-12-29T09:04:23.791Z,55.60
2018-12-29T09:06:53.885Z,48.73
2018-12-29T09:09:25.081Z,49.77
2018-12-29T09:11:58.123Z,41.50
2018-12-29T09:14:28.053Z,41.33
2018-12-29T09:16:58.581Z,48.38
2018-12-29T09:19:32.251Z,48.17
2018-12-29T09:22:02.287Z,43.20
2018-12-29T09:24:32.515Z,42.23
2018-12-29T09:27:02.508Z,41.05
2018-12-29T09:29:32.555Z,46.02
2018-12-29T09:32:02.485Z,37.65
2018-12-29T09:34:43.547Z,42.45
2018-12-29T09:37:13.484Z,43.02
2018-12-29T09:39:44.367Z,43.23
2018-12-29T09:42:14.522Z,46.23
2018-12-29T09:44:44.667Z,44.77
2018-12-29T09:47:19.527Z,46.30
2018-12-29T09:49:46.566Z,50.38
2018-12-29T09:52:19.861Z,46.58
2018-12-29T09:54:53.136Z,46.68
2018-12-29T09:57:23.126Z,50.28
2018-12-29T09:59:53.060Z,54.90
2018-12-29T10:02:22.948Z,46.90
2018-12-29T10:04:53.079Z,49.90
2018-12-29T10:07:25.064Z,45.28
2018-12-29T10:09:55.510Z,47.15
2018-12-29T10:12:25.641Z,45.98
2018-12-29T10:15:04.541Z,49.25
2018-12-29T10:17:34.667Z,51.60
2018-12-29T10:20:04.865Z,46.48
2018-12-29T10:23:54.127Z,53.02
2018-12-29T10:26:56.273Z,44.55
2018-12-29T10:29:26.943Z,49.63
2018-12-29T10:31:56.999Z,47.08
2018-12-29T10:34:38.631Z,46.60
2018-12-29T10:37:08.783Z,39.98
2018-12-29T10:40:15.363Z,51.28
2018-12-29T10:42:45.448Z,45.92
2018-12-29T10:45:17.099Z,53.92
2018-12-29T10:48:05.871Z,54.65
2018-12-29T10:50:44.961Z,50.05
2018-12-29T10:53:15.697Z,60.05
2018-12-29T10:55:45.931Z,57.05
2018-12-29T10:58:16.081Z,61.50
2018-12-29T11:00:50.959Z,74.10
2018-12-29T11:03:21.007Z,57.75
2018-12-29T11:05:51.732Z,60.15
2018-12-29T11:08:22.128Z,62.38
2018-12-29T11:10:54.575Z,67.58
2018-12-29T11:13:26.339Z,63.68
2018-12-29T11:15:56.841Z,58.65
2018-12-29T11:18:26.760Z,69.58
2018-12-29T11:20:57.027Z,70.55
2018-12-29T11:23:27.086Z,67.45
2018-12-29T11:25:57.085Z,59.67
2018-12-29T11:28:27.409Z,60.60
2018-12-29T11:31:01.352Z,63.55
2018-12-29T11:33:31.802Z,66.40
2018-12-29T11:36:02.226Z,61.08
2018-12-29T11:38:33.013Z,55.98
2018-12-29T11:41:07.180Z,68.78
2018-12-29T11:43:43.574Z,65.30
2018-12-29T11:46:21.531Z,56.63
2018-12-29T11:48:52.133Z,60.63
2018-12-29T11:51:23.296Z,59.00
2018-12-29T11:54:04.151Z,74.17
2018-12-29T11:56:36.774Z,66.17
2018-12-29T11:59:09.277Z,63.65
2018-12-29T12:10:37.762Z,67.82
2018-12-29T12:13:28.129Z,64.05
2018-12-29T12:16:05.131Z,60.10
2018-12-29T12:18:35.159Z,66.10
2018-12-29T12:21:05.296Z,65.35
2018-12-29T12:23:39.765Z,57.23
2018-12-29T12:26:13.288Z,63.00
2018-12-29T12:28:49.278Z,63.52
2018-12-29T12:32:29.261Z,62.45
2018-12-29T12:35:00.982Z,57.75
2018-12-29T12:37:31.776Z,51.33
2018-12-29T12:41:16.049Z,63.25
2018-12-29T12:44:39.553Z,53.87
2018-12-29T12:47:37.775Z,59.73
2018-12-29T12:50:54.828Z,58.17
2018-12-29T12:54:12.036Z,59.18
2018-12-29T13:36:42.110Z,42.55
2018-12-29T13:39:12.162Z,41.10
2018-12-29T13:41:42.138Z,41.48
2018-12-29T13:44:12.102Z,44.80
2018-12-29T13:46:42.287Z,44.70
2018-12-29T13:49:12.163Z,36.58
2018-12-29T13:51:42.074Z,41.33
2018-12-29T13:54:12.452Z,44.13
2018-12-29T13:56:42.292Z,45.48
2018-12-29T13:59:12.165Z,45.60
2018-12-29T14:01:42.116Z,40.28
2018-12-29T14:04:12.046Z,39.58
2018-12-29T14:06:42.004Z,44.38
2018-12-29T14:09:11.866Z,42.93
2018-12-29T14:11:41.768Z,41.70
2018-12-29T14:14:11.785Z,47.55
2018-12-29T14:16:42.024Z,58.45
2018-12-29T14:19:12.044Z,46.40
2018-12-29T14:21:41.980Z,40.17
2018-12-29T14:24:11.848Z,39.05
2018-12-29T14:26:42.056Z,40.83
2018-12-29T14:29:11.974Z,39.15
2018-12-29T14:31:41.971Z,42.50
2018-12-29T14:34:12.164Z,43.15
2018-12-29T14:36:42.544Z,38.08
2018-12-29T14:39:12.958Z,41.37
2018-12-29T14:41:42.826Z,43.40
2018-12-29T14:44:12.813Z,41.63
2018-12-29T14:46:42.787Z,38.58
2018-12-29T14:49:12.713Z,38.25
2018-12-29T14:51:42.717Z,43.50
2018-12-29T14:54:12.700Z,37.83
2018-12-29T14:56:42.665Z,52.10
2018-12-29T14:59:13.399Z,42.88
2018-12-29T15:01:43.401Z,54.88
2018-12-29T15:04:13.414Z,44.70
2018-12-29T15:06:43.293Z,41.42
2018-12-29T15:09:13.143Z,42.45
2018-12-29T15:11:42.962Z,38.00
2018-12-29T15:14:12.852Z,44.48
2018-12-29T15:16:43.240Z,37.15
2018-12-29T15:19:13.112Z,42.67
2018-12-29T15:21:43.001Z,36.70
2018-12-29T15:24:12.962Z,37.05
2018-12-29T15:26:43.034Z,37.65
2018-12-29T15:29:13.247Z,31.37
2018-12-29T15:31:43.188Z,33.92
2018-12-29T15:34:13.121Z,34.43
2018-12-29T15:36:42.998Z,38.40
2018-12-29T15:39:12.850Z,37.78
2018-12-29T15:41:42.738Z,33.63
2018-12-29T15:44:12.636Z,40.35
2018-12-29T15:46:42.494Z,34.00
2018-12-29T15:49:12.615Z,33.78
2018-12-29T15:51:42.677Z,39.80
2018-12-29T15:54:12.996Z,29.85
2018-12-29T15:56:42.980Z,36.53
2018-12-29T15:59:13.135Z,34.80
2018-12-29T16:01:43.188Z,36.48
2018-12-29T16:04:13.398Z,32.28
2018-12-29T16:06:43.452Z,37.38
2018-12-29T16:09:13.916Z,38.20
2018-12-29T16:11:44.247Z,33.63
2018-12-29T16:14:14.276Z,42.15
2018-12-29T16:16:44.522Z,40.70
2018-12-29T16:19:15.470Z,31.68
2018-12-29T16:21:45.480Z,36.48
2018-12-29T16:24:15.781Z,32.17
2018-12-29T16:26:45.831Z,28.95
2018-12-29T16:29:15.945Z,36.58
2018-12-29T16:31:45.887Z,32.95
2018-12-29T16:34:16.264Z,32.28
2018-12-29T16:36:46.141Z,33.48
2018-12-29T16:39:16.583Z,35.35
2018-12-29T16:41:46.569Z,29.07
2018-12-29T16:44:17.629Z,34.00
2018-12-29T16:46:48.310Z,32.98
2018-12-29T16:49:18.262Z,31.42
2018-12-29T16:51:48.264Z,34.60
2018-12-29T16:54:18.224Z,36.98
2018-12-29T16:56:48.067Z,45.58
2018-12-29T16:59:18.015Z,37.00
2018-12-29T17:01:47.962Z,44.30
2018-12-29T17:04:18.013Z,59.42
2018-12-29T17:06:48.933Z,67.65
2018-12-29T17:09:19.224Z,58.63
2018-12-29T17:11:52.583Z,60.73
2018-12-29T17:14:21.427Z,61.28
2018-12-29T17:16:51.374Z,66.82
2018-12-29T17:19:21.547Z,54.10
2018-12-29T17:21:51.681Z,61.90
2018-12-29T17:24:21.748Z,58.68
2018-12-29T17:26:51.911Z,55.65
2018-12-29T17:29:21.979Z,62.90
2018-12-29T17:31:51.977Z,58.68
2018-12-29T17:34:21.983Z,52.67
2018-12-29T17:36:52.454Z,58.60
2018-12-29T17:39:22.542Z,62.23
2018-12-29T17:41:52.492Z,58.28
2018-12-29T17:44:22.530Z,53.75
2018-12-29T17:46:52.758Z,55.10
2018-12-29T17:49:24.159Z,63.30
2018-12-29T17:51:54.664Z,65.17
2018-12-29T17:54:24.570Z,60.35
2018-12-29T17:56:54.444Z,59.73
2018-12-29T17:59:24.786Z,57.78
2018-12-29T18:01:55.198Z,64.58
2018-12-29T18:04:25.188Z,62.55
2018-12-29T18:06:55.223Z,52.75
2018-12-29T18:09:25.155Z,56.83
2018-12-29T18:11:55.447Z,54.50
2018-12-29T18:14:25.619Z,57.50
2018-12-29T18:16:55.564Z,52.13
2018-12-29T18:19:30.554Z,50.05
2018-12-29T18:21:58.671Z,54.67
2018-12-29T18:24:28.720Z,67.60
2018-12-29T18:26:58.642Z,53.45
2018-12-29T18:29:29.319Z,44.93
2018-12-29T18:31:59.612Z,42.65
2018-12-29T18:34:29.549Z,43.83
2018-12-29T18:36:59.871Z,47.95
2018-12-29T18:39:32.166Z,31.75
2018-12-29T18:42:02.444Z,45.83
2018-12-29T18:44:32.686Z,37.40
2018-12-29T18:47:03.855Z,45.60
2018-12-29T18:49:38.443Z,39.42
2018-12-29T18:52:06.357Z,40.98
2018-12-29T18:54:36.546Z,43.40
2018-12-29T18:57:06.592Z,30.08
2018-12-29T18:59:36.599Z,34.78
2018-12-29T19:02:06.680Z,25.77
2018-12-29T19:04:36.973Z,25.55
2018-12-29T19:07:07.231Z,18.25
2018-12-29T19:09:37.173Z,19.30
2018-12-29T19:12:11.119Z,20.70
2018-12-29T19:14:39.002Z,20.80
2018-12-29T19:17:08.935Z,19.20
2018-12-29T19:19:46.083Z,25.17
2018-12-29T19:22:11.197Z,19.60
2018-12-29T19:24:41.237Z,22.37
2018-12-29T19:27:11.840Z,22.48
2018-12-29T19:29:42.581Z,22.35
2018-12-29T19:32:13.154Z,21.48
2018-12-29T19:34:43.668Z,27.80
2018-12-29T19:37:14.322Z,18.57
2018-12-29T19:39:50.315Z,23.42
2018-12-29T19:42:23.540Z,20.25
2018-12-29T19:44:54.336Z,16.48
2018-12-29T19:47:24.535Z,21.37
2018-12-29T19:49:55.414Z,16.00
2018-12-29T19:52:26.003Z,21.95
2018-12-29T19:54:56.743Z,17.95
2018-12-29T19:57:32.420Z,20.43
2018-12-29T20:00:04.144Z,16.52
2018-12-29T20:02:34.446Z,11.15
2018-12-29T20:05:05.502Z,12.55
2018-12-29T20:07:35.580Z,17.45
2018-12-29T20:10:06.198Z,18.17
2018-12-29T20:12:39.229Z,14.70
2018-12-29T20:15:09.774Z,16.80
2018-12-29T20:17:40.296Z,18.52
2018-12-29T20:20:15.277Z,24.32
2018-12-29T20:22:45.516Z,20.85
2018-12-29T20:25:16.165Z,23.42
2018-12-29T20:27:46.646Z,20.70
2018-12-29T20:30:17.168Z,29.40
2018-12-29T20:32:47.305Z,37.05
2018-12-29T20:35:18.414Z,38.78
2018-12-29T20:37:48.546Z,46.98
2018-12-29T20:40:18.875Z,41.95
2018-12-29T20:42:56.293Z,43.25
2018-12-29T20:45:22.166Z,41.28
2018-12-29T20:47:53.374Z,42.58
2018-12-29T20:50:23.735Z,36.85
2018-12-29T20:52:58.741Z,38.10
2018-12-29T20:55:29.034Z,41.90
2018-12-29T20:58:02.256Z,43.95
2018-12-29T21:03:20.209Z,41.15
2018-12-29T21:11:33.991Z,34.13
2018-12-29T21:14:04.447Z,31.70
2018-12-29T21:16:35.987Z,37.55
2018-12-29T21:19:07.141Z,31.70
2018-12-29T21:21:38.075Z,34.70
2018-12-29T21:24:12.339Z,35.05
2018-12-29T21:26:41.383Z,37.50
2018-12-29T21:29:11.664Z,32.50
2018-12-29T21:31:41.774Z,34.95
2018-12-29T21:34:11.860Z,30.43
2018-12-29T21:36:42.048Z,34.25
2018-12-29T21:39:12.462Z,35.78
2018-12-29T21:41:42.525Z,37.90
2018-12-29T21:44:12.704Z,38.78
2018-12-29T21:46:42.836Z,36.83
2018-12-29T21:49:12.998Z,30.27
2018-12-29T21:51:46.423Z,35.03
2018-12-29T21:54:23.903Z,29.12
2018-12-29T21:56:57.046Z,36.42
2018-12-29T21:59:28.741Z,32.58
2018-12-29T22:02:01.768Z,31.02
2018-12-29T22:07:37.818Z,36.45
2018-12-29T22:10:21.013Z,31.87
2018-12-29T22:12:53.291Z,32.23
2018-12-29T22:15:24.007Z,29.40
2018-12-29T22:17:54.393Z,26.93
2018-12-29T22:20:24.976Z,30.88
2018-12-29T22:23:28.920Z,36.23
2018-12-29T22:26:12.627Z,26.05
2018-12-29T22:28:52.695Z,27.05
2018-12-29T22:31:54.081Z,23.42
2018-12-29T22:34:25.111Z,25.35
2018-12-29T22:36:57.850Z,27.73
2018-12-29T22:39:30.561Z,21.15
2018-12-29T22:42:03.630Z,23.35
2018-12-29T22:44:33.842Z,18.65
2018-12-29T22:47:03.978Z,21.07
2018-12-29T22:49:37.577Z,19.05
2018-12-29T22:52:16.511Z,16.73
2018-12-29T22:54:50.483Z,14.53
2018-12-29T22:57:21.114Z,12.88
2018-12-29T23:02:50.067Z,10.70
2018-12-29T23:05:23.716Z,10.50
2018-12-29T23:08:11.069Z,5.80
2018-12-29T23:13:26.420Z,9.00
2018-12-29T23:16:19.185Z,7.03
2018-12-29T23:19:13.658Z,7.92
2018-12-29T23:22:23.034Z,5.60
2018-12-29T23:25:04.401Z,6.20
2018-12-29T23:28:17.558Z,6.05
2018-12-29T23:30:48.473Z,3.90
2018-12-29T23:33:18.780Z,4.92
2018-12-29T23:35:49.980Z,4.33
2018-12-29T23:38:20.442Z,3.55
2018-12-29T23:40:50.748Z,4.35
2018-12-29T23:43:20.997Z,5.37
2018-12-29T23:45:51.536Z,2.62
2018-12-29T23:48:22.150Z,6.08
2018-12-29T23:51:05.124Z,3.33
2018-12-29T23:53:28.836Z,3.10
2018-12-29T23:55:59.524Z,3.75
2018-12-29T23:58:29.783Z,3.98
